Time;durP1;ratioP1;P1;durP2;ratioP2;P2;SDS_P1;SDS_P2;PMS_P1;PMS_P2;Temp;Humidity;BMP_temperature;BMP_pressure;BME280_temperature;BME280_humidity;BME280_pressure;Samples;Min_cycle;Max_cycle;Signal;HPM_P1;HPM_P2
2022/07/11 00:01:10;;;;;;;10.60;6.30;;;;;;;;;;7316017;19;154408;-17
2022/07/11 00:03:44;;;;;;;11.63;6.43;;;;;;;;;;7315502;19;153906;-16
2022/07/11 00:06:16;;;;;;;9.55;6.55;;;;;;;;;;7312898;19;162538;-17
2022/07/11 00:08:47;;;;;;;9.00;5.45;;;;;;;;;;7314463;19;163172;-16
2022/07/11 00:11:18;;;;;;;8.20;5.95;;;;;;;;;;7312711;19;154738;-17
2022/07/11 00:13:50;;;;;;;9.75;6.10;;;;;;;;;;7312426;19;154088;-17
2022/07/11 00:16:21;;;;;;;9.73;5.60;;;;;;;;;;7309906;19;162740;-17
2022/07/11 00:18:55;;;;;;;11.40;6.38;;;;;;;;;;7312200;19;162828;-17
2022/07/11 00:21:26;;;;;;;10.05;6.10;;;;;;;;;;7309836;19;154595;-15
2022/07/11 00:23:58;;;;;;;11.73;5.97;;;;;;;;;;7311823;19;153974;-15
2022/07/11 00:26:29;;;;;;;9.40;5.97;;;;;;;;;;7313519;19;162329;-15
2022/07/11 00:29:00;;;;;;;10.23;5.85;;;;;;;;;;7316448;19;162876;-15
2022/07/11 00:31:31;;;;;;;10.80;5.75;;;;;;;;;;7314231;19;154499;-15
2022/07/11 00:34:05;;;;;;;9.68;6.32;;;;;;;;;;7314893;19;154437;-16
2022/07/11 00:36:36;;;;;;;9.70;5.82;;;;;;;;;;7312629;19;162904;-15
2022/07/11 00:39:08;;;;;;;11.25;5.60;;;;;;;;;;7314135;19;163737;-16
2022/07/11 00:41:39;;;;;;;7.60;4.80;;;;;;;;;;7314351;19;152929;-15
2022/07/11 00:44:11;;;;;;;6.38;4.95;;;;;;;;;;7314137;19;154273;-16
2022/07/11 00:46:42;;;;;;;9.55;5.18;;;;;;;;;;7314038;19;162681;-16
2022/07/11 00:49:16;;;;;;;8.35;4.72;;;;;;;;;;7313907;19;163392;-15
2022/07/11 00:51:48;;;;;;;8.43;4.75;;;;;;;;;;7314952;19;154474;-17
2022/07/11 00:54:21;;;;;;;8.38;4.53;;;;;;;;;;7314781;19;153557;-16
2022/07/11 00:56:52;;;;;;;;;;;;;;;;;;7313596;19;162317;-17
2022/07/11 00:59:23;;;;;;;7.28;4.45;;;;;;;;;;7312773;19;163611;-16
2022/07/11 01:01:55;;;;;;;6.63;4.28;;;;;;;;;;7314284;19;154478;-15
2022/07/11 01:04:29;;;;;;;7.20;4.75;;;;;;;;;;7314090;19;154096;-17
2022/07/11 01:07:00;;;;;;;5.97;4.20;;;;;;;;;;7313345;19;162341;-16
2022/07/11 01:09:33;;;;;;;12.27;5.17;;;;;;;;;;7313997;19;162918;-16
2022/07/11 01:12:04;;;;;;;12.55;5.43;;;;;;;;;;7314295;19;154483;-16
2022/07/11 01:14:35;;;;;;;8.50;4.90;;;;;;;;;;7314132;19;153999;-17
2022/07/11 01:17:07;;;;;;;7.38;5.30;;;;;;;;;;7313626;19;162315;-16
2022/07/11 01:19:41;;;;;;;8.48;4.78;;;;;;;;;;7311424;19;162957;-16
2022/07/11 01:22:16;;;;;;;8.40;4.68;;;;;;;;;;7313886;19;154796;-17
2022/07/11 01:24:50;;;;;;;7.53;4.53;;;;;;;;;;7313772;19;154008;-16
2022/07/11 01:27:22;;;;;;;6.70;4.75;;;;;;;;;;7310425;19;162803;-16
2022/07/11 01:29:54;;;;;;;5.33;4.27;;;;;;;;;;7313238;19;163355;-16
2022/07/11 01:32:25;;;;;;;8.82;4.85;;;;;;;;;;7313672;19;154548;-15
2022/07/11 01:34:57;;;;;;;7.72;4.35;;;;;;;;;;7311497;19;154094;-16
2022/07/11 01:37:28;;;;;;;7.00;4.95;;;;;;;;;;7311542;19;162640;-16
2022/07/11 01:40:02;;;;;;;7.80;5.05;;;;;;;;;;7312798;19;163211;-16
2022/07/11 01:42:36;;;;;;;6.72;4.47;;;;;;;;;;7313309;19;154375;-16
2022/07/11 01:45:08;;;;;;;6.50;4.53;;;;;;;;;;7313176;19;153981;-16
2022/07/11 01:47:40;;;;;;;7.80;4.60;;;;;;;;;;7311896;19;162129;-16
2022/07/11 01:50:12;;;;;;;5.30;4.43;;;;;;;;;;7312454;19;162872;-15
2022/07/11 01:52:43;;;;;;;6.10;4.20;;;;;;;;;;7313220;19;154468;-16
2022/07/11 01:55:17;;;;;;;5.97;4.25;;;;;;;;;;7311147;19;153946;-15
2022/07/11 01:57:48;;;;;;;6.63;4.60;;;;;;;;;;7312573;19;163189;-16
2022/07/11 02:00:19;;;;;;;5.30;4.10;;;;;;;;;;7312185;19;163208;-16
2022/07/11 02:02:50;;;;;;;7.90;4.47;;;;;;;;;;7312421;19;154370;-16
2022/07/11 02:05:22;;;;;;;5.63;3.88;;;;;;;;;;7312428;19;154397;-16
2022/07/11 02:10:39;;;;;;;5.90;4.35;;;;;;;;;;7312140;19;163345;-16
2022/07/11 02:13:12;;;;;;;8.65;4.80;;;;;;;;;;7312071;19;154553;-16
2022/07/11 02:15:44;;;;;;;6.47;4.80;;;;;;;;;;7312197;19;154126;-16
2022/07/11 02:18:17;;;;;;;8.30;4.50;;;;;;;;;;7311949;19;162332;-16
2022/07/11 02:20:49;;;;;;;7.18;4.50;;;;;;;;;;7311908;19;162831;-18
2022/07/11 02:23:21;;;;;;;4.75;4.25;;;;;;;;;;7312032;19;154416;-17
2022/07/11 02:25:55;;;;;;;8.73;4.53;;;;;;;;;;7310892;19;153408;-16
2022/07/11 02:28:26;;;;;;;5.85;4.10;;;;;;;;;;7310101;19;162236;-16
2022/07/11 02:30:58;;;;;;;8.68;4.70;;;;;;;;;;7309811;19;162790;-15
2022/07/11 02:33:32;;;;;;;7.63;4.25;;;;;;;;;;7311886;19;154485;-16
2022/07/11 02:36:03;;;;;;;6.03;4.65;;;;;;;;;;7311423;19;153961;-16
2022/07/11 02:38:34;;;;;;;5.72;4.20;;;;;;;;;;7306346;19;162796;-15
2022/07/11 02:41:08;;;;;;;5.32;4.20;;;;;;;;;;7309530;19;162841;-15
2022/07/11 02:43:40;;;;;;;5.90;4.30;;;;;;;;;;7311448;19;154846;-15
2022/07/11 02:46:11;;;;;;;8.65;4.03;;;;;;;;;;7311015;19;153998;-16
2022/07/11 02:48:43;;;;;;;8.18;5.07;;;;;;;;;;7309489;19;162244;-16
2022/07/11 02:51:14;;;;;;;4.15;3.75;;;;;;;;;;7309326;19;163108;-16
2022/07/11 02:53:45;;;;;;;6.57;4.40;;;;;;;;;;7311118;19;154560;-16
2022/07/11 02:56:19;;;;;;;7.93;4.30;;;;;;;;;;7310811;19;154023;-16
2022/07/11 02:58:51;;;;;;;6.40;4.47;;;;;;;;;;7310602;19;162212;-16
2022/07/11 03:01:22;;;;;;;5.25;4.07;;;;;;;;;;7308769;19;162920;-16
2022/07/11 03:03:53;;;;;;;4.85;4.10;;;;;;;;;;7310831;19;154420;-16
2022/07/11 03:06:25;;;;;;;5.40;4.00;;;;;;;;;;7310485;19;153993;-16
2022/07/11 03:08:56;;;;;;;5.38;4.03;;;;;;;;;;7309161;19;162304;-16
2022/07/11 03:11:32;;;;;;;7.75;4.10;;;;;;;;;;7310114;19;163156;-16
2022/07/11 03:14:06;;;;;;;4.38;3.97;;;;;;;;;;7310628;19;154446;-16
2022/07/11 03:16:37;;;;;;;5.75;4.28;;;;;;;;;;7310382;19;153985;-16
2022/07/11 03:19:08;;;;;;;4.07;3.65;;;;;;;;;;7308498;19;162308;-17
2022/07/11 03:21:40;;;;;;;4.43;4.03;;;;;;;;;;7308489;19;163322;-17
2022/07/11 03:24:11;;;;;;;4.90;4.35;;;;;;;;;;7310146;19;153930;-17
2022/07/11 03:26:45;;;;;;;5.60;4.05;;;;;;;;;;7308552;19;153913;-16
2022/07/11 03:29:17;;;;;;;4.80;4.07;;;;;;;;;;7306795;19;162294;-17
2022/07/11 03:31:49;;;;;;;5.40;4.47;;;;;;;;;;7309553;19;163271;-17
2022/07/11 03:34:20;;;;;;;5.10;4.03;;;;;;;;;;7309900;19;154851;-17
2022/07/11 03:36:51;;;;;;;4.75;4.15;;;;;;;;;;7309180;19;154097;-16
2022/07/11 03:39:23;;;;;;;5.95;4.22;;;;;;;;;;7309183;19;162645;-16
2022/07/11 03:41:57;;;;;;;5.72;3.78;;;;;;;;;;7309184;19;163528;-17
2022/07/11 03:44:29;;;;;;;4.95;4.13;;;;;;;;;;7308202;19;155035;-18
2022/07/11 03:47:00;;;;;;;4.68;3.95;;;;;;;;;;7309398;19;153948;-17
2022/07/11 03:49:31;;;;;;;5.18;3.90;;;;;;;;;;7308168;19;162321;-17
2022/07/11 03:52:02;;;;;;;3.92;3.63;;;;;;;;;;7313597;19;163219;-17
2022/07/11 03:54:34;;;;;;;4.10;3.72;;;;;;;;;;7316255;19;154394;-17
2022/07/11 03:57:08;;;;;;;6.60;4.30;;;;;;;;;;7316100;19;153910;-17
2022/07/11 03:59:40;;;;;;;5.78;4.25;;;;;;;;;;7315805;19;162682;-17
2022/07/11 04:02:11;;;;;;;4.65;4.00;;;;;;;;;;7315687;19;162973;-17
2022/07/11 04:04:43;;;;;;;4.15;3.75;;;;;;;;;;7316274;19;154375;-17
2022/07/11 04:07:14;;;;;;;4.60;4.03;;;;;;;;;;7316059;19;154109;-16
2022/07/11 04:09:45;;;;;;;6.43;3.72;;;;;;;;;;7314219;19;162185;-17
2022/07/11 04:12:20;;;;;;;4.60;3.92;;;;;;;;;;7315403;19;163350;-16
2022/07/11 04:14:51;;;;;;;5.22;3.85;;;;;;;;;;7315611;19;154420;-17
2022/07/11 04:17:22;;;;;;;4.97;3.83;;;;;;;;;;7315652;19;154120;-17
2022/07/11 04:19:54;;;;;;;5.70;3.67;;;;;;;;;;7315327;19;162232;-17
2022/07/11 04:22:26;;;;;;;4.05;3.38;;;;;;;;;;7315109;19;164408;-17
2022/07/11 04:24:57;;;;;;;4.47;3.90;;;;;;;;;;7315773;19;154419;-17
2022/07/11 04:27:32;;;;;;;4.47;3.90;;;;;;;;;;7314936;19;153915;-16
2022/07/11 04:30:06;;;;;;;5.20;3.70;;;;;;;;;;7313652;19;162657;-17
2022/07/11 04:32:37;;;;;;;4.87;3.73;;;;;;;;;;7313354;19;162798;-18
2022/07/11 04:35:10;;;;;;;4.13;3.70;;;;;;;;;;7313459;19;154976;-16
2022/07/11 04:37:42;;;;;;;4.40;3.42;;;;;;;;;;7313752;19;153914;-16
2022/07/11 04:40:13;;;;;;;5.30;4.00;;;;;;;;;;7314337;19;162711;-17
2022/07/11 04:42:48;;;;;;;6.05;3.88;;;;;;;;;;7312992;19;162921;-16
2022/07/11 04:45:20;;;;;;;4.15;3.38;;;;;;;;;;7314680;19;154577;-17
2022/07/11 04:47:51;;;;;;;4.13;3.55;;;;;;;;;;7313013;19;154459;-17
2022/07/11 04:50:23;;;;;;;5.35;3.83;;;;;;;;;;7313043;19;162283;-17
2022/07/11 04:52:55;;;;;;;5.35;3.95;;;;;;;;;;7314604;19;163288;-17
2022/07/11 04:55:26;;;;;;;3.83;3.47;;;;;;;;;;7314262;19;154476;-17
2022/07/11 04:58:00;;;;;;;5.13;3.58;;;;;;;;;;7314352;19;155008;-17
2022/07/11 05:00:32;;;;;;;3.97;3.53;;;;;;;;;;7312321;19;162425;-17
2022/07/11 05:03:06;;;;;;;4.50;3.78;;;;;;;;;;7313739;19;164088;-17
2022/07/11 05:05:38;;;;;;;4.40;3.97;;;;;;;;;;7314032;19;154454;-17
2022/07/11 05:08:09;;;;;;;4.93;4.07;;;;;;;;;;7314156;19;154372;-16
2022/07/11 05:10:40;;;;;;;4.13;3.78;;;;;;;;;;7312381;19;162643;-17
2022/07/11 05:13:14;;;;;;;4.30;3.90;;;;;;;;;;7313675;19;162805;-17
2022/07/11 05:15:45;;;;;;;4.80;4.30;;;;;;;;;;7314195;19;154723;-17
2022/07/11 05:18:17;;;;;;;4.07;3.45;;;;;;;;;;7313980;19;153957;-16
2022/07/11 05:20:49;;;;;;;4.47;3.70;;;;;;;;;;7311965;19;162464;-17
2022/07/11 05:23:20;;;;;;;6.15;3.97;;;;;;;;;;7313501;19;163434;-15
2022/07/11 05:25:52;;;;;;;3.75;3.33;;;;;;;;;;7313558;19;154824;-15
2022/07/11 05:28:25;;;;;;;6.18;4.38;;;;;;;;;;7313383;19;153943;-16
2022/07/11 05:30:58;;;;;;;7.53;3.90;;;;;;;;;;7311018;19;162470;-16
2022/07/11 05:33:29;;;;;;;5.60;4.85;;;;;;;;;;7312948;19;162795;-16
2022/07/11 05:36:00;;;;;;;7.00;4.40;;;;;;;;;;7313199;19;155023;-15
2022/07/11 05:38:31;;;;;;;6.88;4.55;;;;;;;;;;7310806;19;153689;-16
2022/07/11 05:41:02;;;;;;;6.95;4.50;;;;;;;;;;7310968;19;162837;-15
2022/07/11 05:43:36;;;;;;;7.18;5.18;;;;;;;;;;7312668;19;162885;-15
2022/07/11 05:46:08;;;;;;;7.47;5.45;;;;;;;;;;7313045;19;154507;-15
2022/07/11 05:48:39;;;;;;;7.38;5.18;;;;;;;;;;7312945;19;154003;-15
2022/07/11 05:51:11;;;;;;;9.43;5.50;;;;;;;;;;7310855;19;162708;-15
2022/07/11 05:53:42;;;;;;;8.50;5.70;;;;;;;;;;7311497;19;162822;-16
2022/07/11 05:56:13;;;;;;;7.30;5.15;;;;;;;;;;7312546;19;154818;-15
2022/07/11 05:58:47;;;;;;;7.22;4.80;;;;;;;;;;7312568;19;153922;-16
2022/07/11 06:01:20;;;;;;;5.93;4.90;;;;;;;;;;7312087;19;162853;-16
2022/07/11 06:03:52;;;;;;;7.72;5.18;;;;;;;;;;7310805;19;162853;-15
2022/07/11 06:06:23;;;;;;;9.32;5.38;;;;;;;;;;7311230;19;154526;-15
2022/07/11 06:08:53;;;;;;;8.25;5.43;;;;;;;;;;7311216;19;154663;-16
2022/07/11 06:11:24;;;;;;;7.07;5.03;;;;;;;;;;7310471;19;162218;-16
2022/07/11 06:13:58;;;;;;;6.22;4.90;;;;;;;;;;7310308;19;162810;-19
2022/07/11 06:16:30;;;;;;;8.35;5.10;;;;;;;;;;7312374;19;154900;-16
2022/07/11 06:19:01;;;;;;;6.20;5.28;;;;;;;;;;7312171;19;154026;-16
2022/07/11 06:21:33;;;;;;;9.05;5.00;;;;;;;;;;7311806;19;162636;-16
2022/07/11 06:24:04;;;;;;;7.43;5.28;;;;;;;;;;7311356;19;164168;-16
2022/07/11 06:26:35;;;;;;;7.03;5.03;;;;;;;;;;7311847;19;154742;-16
2022/07/11 06:29:09;;;;;;;7.25;5.22;;;;;;;;;;7311847;19;153977;-16
2022/07/11 06:31:41;;;;;;;7.68;5.68;;;;;;;;;;7309520;19;162306;-16
2022/07/11 06:34:12;;;;;;;5.82;5.20;;;;;;;;;;7311150;19;163310;-16
2022/07/11 06:36:43;;;;;;;7.25;5.60;;;;;;;;;;7311265;19;154613;-15
2022/07/11 06:39:15;;;;;;;7.78;5.43;;;;;;;;;;7311301;19;154581;-16
2022/07/11 06:41:46;;;;;;;7.10;5.03;;;;;;;;;;7310768;19;162448;-17
2022/07/11 06:44:20;;;;;;;9.70;5.75;;;;;;;;;;7310727;19;162801;-17
2022/07/11 06:46:54;;;;;;;6.32;4.65;;;;;;;;;;7311610;19;154560;-17
2022/07/11 06:49:26;;;;;;;7.45;5.05;;;;;;;;;;7311411;19;154492;-16
2022/07/11 06:51:57;;;;;;;7.43;5.40;;;;;;;;;;7308865;19;163016;-17
2022/07/11 06:54:28;;;;;;;7.20;5.93;;;;;;;;;;7310522;19;162899;-17
2022/07/11 06:57:00;;;;;;;7.70;5.32;;;;;;;;;;7311088;19;154954;-15
2022/07/11 06:59:35;;;;;;;8.60;5.20;;;;;;;;;;7310978;19;154304;-16
2022/07/11 07:02:06;;;;;;;7.43;5.85;;;;;;;;;;7310472;19;162208;-17
2022/07/11 07:04:38;;;;;;;8.38;4.90;;;;;;;;;;7310574;19;163274;-17
2022/07/11 07:07:09;;;;;;;9.82;5.50;;;;;;;;;;7310761;19;154491;-16
2022/07/11 07:09:41;;;;;;;7.22;4.88;;;;;;;;;;7310957;19;154295;-16
2022/07/11 07:12:24;;;;;;;7.38;5.40;;;;;;;;;;7308606;19;162683;-17
2022/07/11 07:14:58;;;;;;;6.90;5.10;;;;;;;;;;7310491;19;163393;-16
2022/07/11 07:17:35;;;;;;;6.32;5.60;;;;;;;;;;7310816;19;155064;-17
2022/07/11 07:20:13;;;;;;;8.93;5.38;;;;;;;;;;7310724;19;154035;-16
2022/07/11 07:22:49;;;;;;;9.23;6.05;;;;;;;;;;7310244;19;162366;-16
2022/07/11 07:25:23;;;;;;;11.20;6.55;;;;;;;;;;7310149;19;162877;-16
2022/07/11 07:27:57;;;;;;;10.45;5.60;;;;;;;;;;7317413;19;154786;-16
2022/07/11 07:30:34;;;;;;;7.97;5.95;;;;;;;;;;7317476;19;154085;-16
2022/07/11 07:33:11;;;;;;;8.18;5.80;;;;;;;;;;7314642;19;162195;-16
2022/07/11 07:35:42;;;;;;;10.15;6.35;;;;;;;;;;7314847;19;163304;-16
2022/07/11 07:38:14;;;;;;;;;;;;;;;;;;7315860;19;155035;-16
2022/07/11 07:40:50;;;;;;;12.10;6.15;;;;;;;;;;7317036;19;153344;-16
2022/07/11 07:43:21;;;;;;;8.23;6.47;;;;;;;;;;7316745;19;162711;-17
2022/07/11 07:46:08;;;;;;;10.98;7.15;;;;;;;;;;7316637;19;163970;-17
2022/07/11 07:48:40;;;;;;;9.23;6.05;;;;;;;;;;7316644;19;154412;-17
2022/07/11 07:51:12;;;;;;;12.77;6.23;;;;;;;;;;7314956;19;154392;-15
2022/07/11 07:53:43;;;;;;;12.95;6.45;;;;;;;;;;7316047;19;162324;-16
2022/07/11 07:56:14;;;;;;;10.20;6.47;;;;;;;;;;7315973;19;163237;-16
2022/07/11 07:58:45;;;;;;;11.57;6.72;;;;;;;;;;7316444;19;154750;-22
2022/07/11 08:04:06;;;;;;;12.52;7.18;;;;;;;;;;7316182;19;162319;-16
2022/07/11 08:06:40;;;;;;;9.05;6.72;;;;;;;;;;7316001;19;163325;-16
2022/07/11 08:09:12;;;;;;;11.43;6.57;;;;;;;;;;7316062;19;154443;-16
2022/07/11 08:11:45;;;;;;;12.48;7.05;;;;;;;;;;7316387;19;154048;-16
2022/07/11 08:14:16;;;;;;;8.93;6.22;;;;;;;;;;7315593;19;162902;-16
2022/07/11 08:16:50;;;;;;;9.55;6.55;;;;;;;;;;7315522;19;162805;-16
2022/07/11 08:19:28;;;;;;;10.02;6.82;;;;;;;;;;7315994;19;154429;-16
2022/07/11 08:22:03;;;;;;;8.73;5.47;;;;;;;;;;7315957;19;153973;-16
2022/07/11 08:24:34;;;;;;;7.88;5.22;;;;;;;;;;7315458;19;162316;-16
2022/07/11 08:27:06;;;;;;;8.90;6.28;;;;;;;;;;7315502;19;162849;-17
2022/07/11 08:29:51;;;;;;;9.52;6.10;;;;;;;;;;7315939;19;154711;-17
2022/07/11 08:32:24;;;;;;;7.60;5.95;;;;;;;;;;7314729;19;153903;-16
2022/07/11 08:34:55;;;;;;;12.15;6.32;;;;;;;;;;7315406;19;162258;-16
2022/07/11 08:37:27;;;;;;;10.18;5.88;;;;;;;;;;7312916;19;163527;-16
2022/07/11 08:39:58;;;;;;;6.57;5.78;;;;;;;;;;7315745;19;154432;-17
2022/07/11 08:42:31;;;;;;;8.82;5.93;;;;;;;;;;7315326;19;154442;-16
2022/07/11 08:45:03;;;;;;;8.63;6.35;;;;;;;;;;7314715;19;162645;-16
2022/07/11 08:47:39;;;;;;;12.43;6.43;;;;;;;;;;7314944;19;163373;-16
2022/07/11 08:50:12;;;;;;;10.82;7.25;;;;;;;;;;7315167;19;154504;-16
2022/07/11 08:52:43;;;;;;;7.72;6.38;;;;;;;;;;7314055;19;153991;-16
2022/07/11 08:55:15;;;;;;;7.75;5.60;;;;;;;;;;7314366;19;162172;-16
2022/07/11 08:57:46;;;;;;;6.35;5.68;;;;;;;;;;7314321;19;163146;-16
2022/07/11 09:00:19;;;;;;;10.45;6.32;;;;;;;;;;7314404;19;154542;-16
2022/07/11 09:02:52;;;;;;;;;;;;;;;;;;7315353;19;154046;-16
2022/07/11 09:05:23;;;;;;;;;;;;;;;;;;7314830;19;162896;-16
2022/07/11 09:07:54;;;;;;;7.63;6.00;;;;;;;;;;7314421;19;162910;-17
2022/07/11 09:10:26;;;;;;;11.15;6.22;;;;;;;;;;7314542;19;154452;-17
2022/07/11 09:13:02;;;;;;;8.50;6.40;;;;;;;;;;7313392;19;153959;-17
2022/07/11 09:15:38;;;;;;;10.95;6.57;;;;;;;;;;7314217;19;162217;-16
2022/07/11 09:18:35;;;;;;;9.27;6.90;;;;;;;;;;7313582;19;163406;-17
2022/07/11 09:26:38;;;;;;;9.38;7.15;;;;;;;;;;7314169;19;162372;-17
2022/07/11 09:29:11;;;;;;;12.40;7.10;;;;;;;;;;7313704;19;163494;-17
2022/07/11 09:31:44;;;;;;;12.20;7.55;;;;;;;;;;7314024;19;153967;-17
2022/07/11 09:34:23;;;;;;;13.23;7.22;;;;;;;;;;7311434;19;154095;-17
2022/07/11 09:36:56;;;;;;;15.55;7.97;;;;;;;;;;7312816;19;162120;-17
2022/07/11 09:39:29;;;;;;;10.98;7.80;;;;;;;;;;7313568;19;163294;-17
2022/07/11 09:42:00;;;;;;;;;;;;;;;;;;7312895;19;154433;-17
2022/07/11 09:44:33;;;;;;;14.55;8.18;;;;;;;;;;7313889;19;154390;-17
2022/07/11 09:47:11;;;;;;;12.10;7.07;;;;;;;;;;7313143;19;162303;-17
2022/07/11 09:49:45;;;;;;;11.80;7.95;;;;;;;;;;7310542;19;163206;-17
2022/07/11 09:52:19;;;;;;;13.18;7.43;;;;;;;;;;7313499;19;154382;-17
2022/07/11 09:54:57;;;;;;;13.13;7.18;;;;;;;;;;7310657;19;154661;-17
2022/07/11 09:57:32;;;;;;;12.10;7.03;;;;;;;;;;7313131;19;162667;-16
2022/07/11 10:00:05;;;;;;;11.82;7.80;;;;;;;;;;7312851;19;162848;-16
2022/07/11 10:02:37;;;;;;;12.18;7.43;;;;;;;;;;7312995;19;154500;-17
2022/07/11 10:05:11;;;;;;;10.25;6.32;;;;;;;;;;7312636;19;153919;-17
2022/07/11 10:07:43;;;;;;;11.98;7.13;;;;;;;;;;7311011;19;162284;-16
2022/07/11 10:10:14;;;;;;;8.35;6.25;;;;;;;;;;7312378;19;162831;-17
2022/07/11 10:12:46;;;;;;;14.63;7.53;;;;;;;;;;7312688;19;154372;-17
2022/07/11 10:15:20;;;;;;;7.50;6.07;;;;;;;;;;7311205;19;153482;-17
2022/07/11 10:18:01;;;;;;;11.88;6.75;;;;;;;;;;7312069;19;162672;-17
2022/07/11 10:20:41;;;;;;;10.27;5.75;;;;;;;;;;7311787;19;163420;-17
2022/07/11 10:23:22;;;;;;;8.68;5.68;;;;;;;;;;7311327;19;154842;-17
2022/07/11 10:26:00;;;;;;;8.73;5.40;;;;;;;;;;7312409;19;153969;-17
2022/07/11 10:28:44;;;;;;;8.60;5.13;;;;;;;;;;7310206;19;162247;-17
2022/07/11 10:31:21;;;;;;;12.90;5.32;;;;;;;;;;7311860;19;163755;-17
2022/07/11 10:34:05;;;;;;;9.35;5.13;;;;;;;;;;7308322;19;154935;-18
2022/07/11 10:36:43;;;;;;;12.00;5.55;;;;;;;;;;7311359;19;154516;-17
2022/07/11 10:39:18;;;;;;;12.23;5.05;;;;;;;;;;7307853;19;162251;-17
2022/07/11 10:41:49;;;;;;;9.18;5.45;;;;;;;;;;7310979;19;162858;-17
2022/07/11 10:44:20;;;;;;;8.95;5.00;;;;;;;;;;7311532;19;154614;-17
2022/07/11 10:46:51;;;;;;;8.25;5.07;;;;;;;;;;7311464;19;153869;-16
2022/07/11 10:49:35;;;;;;;11.00;4.78;;;;;;;;;;7310023;19;162337;-18
2022/07/11 10:52:10;;;;;;;8.88;5.30;;;;;;;;;;7310501;19;163383;-17
2022/07/11 10:55:01;;;;;;;10.02;5.20;;;;;;;;;;7309937;19;154453;-18
2022/07/11 10:57:38;;;;;;;10.68;4.80;;;;;;;;;;7309292;19;154010;-17
2022/07/11 11:00:14;;;;;;;8.85;4.75;;;;;;;;;;7312426;19;162641;-17
2022/07/11 11:03:04;;;;;;;8.98;4.57;;;;;;;;;;7317768;19;163550;-17
2022/07/11 11:05:54;;;;;;;11.35;5.18;;;;;;;;;;7315106;19;154378;-17
2022/07/11 11:08:47;;;;;;;9.07;5.05;;;;;;;;;;7316589;19;154473;-17
2022/07/11 11:11:41;;;;;;;10.45;4.80;;;;;;;;;;7314484;19;162850;-17
2022/07/11 11:14:27;;;;;;;8.13;5.28;;;;;;;;;;7312356;19;162790;-17
2022/07/11 11:17:34;;;;;;;11.50;4.68;;;;;;;;;;7314331;19;155180;-17
2022/07/11 11:20:06;;;;;;;9.57;4.38;;;;;;;;;;7317812;19;154352;-17
2022/07/11 11:22:38;;;;;;;7.70;5.22;;;;;;;;;;7315665;19;162245;-17
2022/07/11 11:25:12;;;;;;;13.43;5.25;;;;;;;;;;7313828;19;162860;-17
2022/07/11 11:28:08;;;;;;;9.55;5.07;;;;;;;;;;7316712;19;154992;-17
2022/07/11 11:30:39;;;;;;;7.28;4.43;;;;;;;;;;7316553;19;154002;-17
2022/07/11 11:33:18;;;;;;;7.22;4.60;;;;;;;;;;7314772;19;162225;-17
2022/07/11 11:36:02;;;;;;;7.68;4.95;;;;;;;;;;7312549;19;162938;-17
2022/07/11 11:38:39;;;;;;;7.45;4.65;;;;;;;;;;7315587;19;154575;-17
2022/07/11 11:41:13;;;;;;;14.15;4.40;;;;;;;;;;7314396;19;154212;-17
2022/07/11 11:43:47;;;;;;;11.65;4.93;;;;;;;;;;7315889;19;162716;-17
2022/07/11 11:46:19;;;;;;;7.57;3.97;;;;;;;;;;7309879;19;163549;-17
2022/07/11 11:48:50;;;;;;;7.03;4.72;;;;;;;;;;7314309;19;154433;-17
2022/07/11 11:51:22;;;;;;;8.93;4.75;;;;;;;;;;7315587;19;154114;-17
2022/07/11 11:53:55;;;;;;;6.30;4.07;;;;;;;;;;7316141;19;162194;-17
2022/07/11 11:56:33;;;;;;;7.70;4.47;;;;;;;;;;7315622;19;163204;-17
2022/07/11 11:59:07;;;;;;;5.43;4.38;;;;;;;;;;7312215;19;154842;-16
2022/07/11 12:01:42;;;;;;;6.53;4.25;;;;;;;;;;7314712;19;154251;-16
2022/07/11 12:04:14;;;;;;;8.63;4.20;;;;;;;;;;7314567;19;162232;-17
2022/07/11 12:06:49;;;;;;;5.90;4.22;;;;;;;;;;7311256;19;162744;-17
2022/07/11 12:09:22;;;;;;;8.65;4.45;;;;;;;;;;7312375;19;154432;-16
2022/07/11 12:14:39;;;;;;;10.75;4.63;;;;;;;;;;7313412;19;162724;-17
2022/07/11 12:17:10;;;;;;;9.00;4.15;;;;;;;;;;7316341;19;163245;-16
2022/07/11 12:19:43;;;;;;;6.43;4.07;;;;;;;;;;7315629;19;154828;-17
2022/07/11 12:22:14;;;;;;;8.13;4.10;;;;;;;;;;7313267;19;153942;-17
2022/07/11 12:24:49;;;;;;;6.75;3.80;;;;;;;;;;7311028;19;164796;-17
2022/07/11 12:27:25;;;;;;;6.07;4.10;;;;;;;;;;7312305;19;163249;-17
2022/07/11 12:29:56;;;;;;;7.80;3.65;;;;;;;;;;7315551;19;154404;-17
2022/07/11 12:32:27;;;;;;;7.38;3.72;;;;;;;;;;7314429;19;153964;-17
2022/07/11 12:34:58;;;;;;;8.50;4.07;;;;;;;;;;7313523;19;162652;-18
2022/07/11 12:37:40;;;;;;;9.63;4.05;;;;;;;;;;7312462;19;163137;-17
2022/07/11 12:40:13;;;;;;;11.65;4.35;;;;;;;;;;7313930;19;154346;-18
2022/07/11 12:42:48;;;;;;;9.18;4.40;;;;;;;;;;7314888;19;153998;-17
2022/07/11 12:45:17;;;;;;;8.15;4.70;;;;;;;;;;7314384;19;162164;-18
2022/07/11 12:47:51;;;;;;;11.52;4.85;;;;;;;;;;7313810;19;163350;-17
2022/07/11 12:50:23;;;;;;;13.93;4.78;;;;;;;;;;7314785;19;154367;-17
2022/07/11 12:52:56;;;;;;;10.50;4.88;;;;;;;;;;7314146;19;154555;-17
2022/07/11 12:55:31;;;;;;;10.57;4.32;;;;;;;;;;7312798;19;162840;-17
2022/07/11 12:58:17;;;;;;;16.10;6.50;;;;;;;;;;7313365;19;162786;-18
2022/07/11 13:00:59;;;;;;;19.90;5.70;;;;;;;;;;7314628;19;154376;-17
2022/07/11 13:03:34;;;;;;;20.15;5.25;;;;;;;;;;7314094;19;154181;-18
2022/07/11 13:06:06;;;;;;;18.38;6.13;;;;;;;;;;7313945;19;162848;-17
2022/07/11 13:08:42;;;;;;;12.70;5.03;;;;;;;;;;7313933;19;162572;-17
2022/07/11 13:11:15;;;;;;;23.35;9.65;;;;;;;;;;7314122;19;154443;-17
2022/07/11 13:13:49;;;;;;;;;;;;;;;;;;7314521;19;154000;-17
2022/07/11 13:16:21;;;;;;;38.00;13.52;;;;;;;;;;7310241;19;162397;-17
2022/07/11 13:18:52;;;;;;;41.83;16.13;;;;;;;;;;7313383;19;162352;-17
2022/07/11 13:21:25;;;;;;;43.88;15.93;;;;;;;;;;7313879;19;155357;-17
2022/07/11 13:23:56;;;;;;;41.08;15.02;;;;;;;;;;7313556;19;153966;-18
2022/07/11 13:26:27;;;;;;;41.75;15.63;;;;;;;;;;7313174;19;162798;-17
2022/07/11 13:29:01;;;;;;;40.80;14.50;;;;;;;;;;7313117;19;163238;-17
2022/07/11 13:31:35;;;;;;;41.50;16.13;;;;;;;;;;7313299;19;155094;-17
2022/07/11 13:34:08;;;;;;;;;;;;;;;;;;7313748;19;153935;-18
2022/07/11 13:36:39;;;;;;;35.67;14.05;;;;;;;;;;7310872;19;162380;-18
2022/07/11 13:39:10;;;;;;;34.75;13.23;;;;;;;;;;7310128;19;162871;-17
2022/07/11 13:41:41;;;;;;;31.55;13.68;;;;;;;;;;7313016;19;154846;-18
2022/07/11 13:44:15;;;;;;;35.08;13.15;;;;;;;;;;7313301;19;154139;-17
2022/07/11 13:46:46;;;;;;;35.40;13.85;;;;;;;;;;7312437;19;162184;-18
2022/07/11 13:49:18;;;;;;;34.83;12.77;;;;;;;;;;7312496;19;163951;-18
2022/07/11 13:51:49;;;;;;;30.77;11.55;;;;;;;;;;7312926;19;154419;-17
2022/07/11 13:54:20;;;;;;;34.22;13.38;;;;;;;;;;7312410;19;154543;-17
2022/07/11 13:56:51;;;;;;;30.45;11.77;;;;;;;;;;7310238;19;162409;-16
2022/07/11 13:59:25;;;;;;;32.50;12.68;;;;;;;;;;7311930;19;162773;-16
2022/07/11 14:01:56;;;;;;;31.63;12.23;;;;;;;;;;7312517;19;154384;-17
2022/07/11 14:04:28;;;;;;;25.15;10.70;;;;;;;;;;7312507;19;154671;-17
2022/07/11 14:06:59;;;;;;;22.33;10.45;;;;;;;;;;7311527;19;162564;-17
2022/07/11 14:09:31;;;;;;;24.30;9.73;;;;;;;;;;7311791;19;163001;-17
2022/07/11 14:12:02;;;;;;;25.67;10.38;;;;;;;;;;7312640;19;154477;-17
2022/07/11 14:14:37;;;;;;;16.10;9.00;;;;;;;;;;7311833;19;154603;-17
2022/07/11 14:17:08;;;;;;;17.80;10.07;;;;;;;;;;7308279;19;162410;-17
2022/07/11 14:19:40;;;;;;;19.08;9.05;;;;;;;;;;7311650;19;162878;-17
2022/07/11 14:22:11;;;;;;;18.98;9.60;;;;;;;;;;7312064;19;154329;-17
2022/07/11 14:24:43;;;;;;;17.45;8.55;;;;;;;;;;7310740;19;154051;-16
2022/07/11 14:27:15;;;;;;;17.55;8.27;;;;;;;;;;7311625;19;162733;-17
2022/07/11 14:29:49;;;;;;;;;;;;;;;;;;7312248;19;162913;-16
2022/07/11 14:32:20;;;;;;;17.52;8.68;;;;;;;;;;7311753;19;154677;-17
2022/07/11 14:35:07;;;;;;;19.10;8.57;;;;;;;;;;7310087;19;154507;-17
2022/07/11 14:37:41;;;;;;;17.25;8.52;;;;;;;;;;7308655;19;162180;-17
2022/07/11 14:40:12;;;;;;;17.65;8.48;;;;;;;;;;7310952;19;162790;-17
2022/07/11 14:42:44;;;;;;;17.33;7.90;;;;;;;;;;7311405;19;154862;-17
2022/07/11 14:45:18;;;;;;;19.67;7.72;;;;;;;;;;7311187;19;154092;-17
2022/07/11 14:47:50;;;;;;;14.15;7.47;;;;;;;;;;7310621;19;162714;-17
2022/07/11 14:50:22;;;;;;;15.97;7.33;;;;;;;;;;7310642;19;163208;-17
2022/07/11 14:52:53;;;;;;;12.68;7.18;;;;;;;;;;7310769;19;154408;-16
2022/07/11 14:55:24;;;;;;;13.13;6.63;;;;;;;;;;7310685;19;154389;-17
2022/07/11 14:57:55;;;;;;;14.63;7.63;;;;;;;;;;7307793;19;162771;-17
2022/07/11 15:00:30;;;;;;;11.45;6.72;;;;;;;;;;7310309;19;162820;-17
2022/07/11 15:05:46;;;;;;;12.25;6.35;;;;;;;;;;7310455;19;154391;-17
2022/07/11 15:13:45;;;;;;;11.45;6.50;;;;;;;;;;7308831;19;155508;-17
2022/07/11 15:16:18;;;;;;;14.00;6.50;;;;;;;;;;7309674;19;153893;-17
2022/07/11 15:18:50;;;;;;;11.40;6.28;;;;;;;;;;7309736;19;162830;-17
2022/07/11 15:21:21;;;;;;;10.38;5.65;;;;;;;;;;7309916;19;163248;-17
2022/07/11 15:23:52;;;;;;;12.60;5.88;;;;;;;;;;7310085;19;154797;-17